ローマ/フィウミチーノ の空港の天気 - METARとTAF

ローマ・レオナルド・ダ・ビンチ国際空港 ( LIRF / FCO ) - イタリア ローマ
飛行場実況気象(Metar)
観測時間12/14 07:20 CET (12/14 06:20 UTC)
風向・風速北東 5m/s
視程10km以上
天気現象弱い雨
全天の4割程度の雲 雲底高度 460m
全天の4割程度の雲 雲底高度 910m
気温7℃
湿度87%
気圧1007hPa
METARLIRF 140620Z 05009KT 9999 -RA SCT015 SCT030 07/05 Q1007 NOSIG
過去の天気等 Google飛行場航空写真 Wunderground天気予報

過去48時間のMETAR

飛行場予報(TAF)
発表時間: 12/14 06:00 CET (12/14 05:00 UTC)
予報対象時間: 14日7時 CET ~ 15日13時 CET
風向・風速東北東 5m/s
視程8000m
天気現象
全天の4割程度の雲 雲底高度 610m
全天の8割程度の雲 雲底高度 1520m
14日7時 CET ~ 14日11時 CET に一時的に
天気現象雷雨
14日15時 CET ~ 14日17時 CET に徐々に
風向・風速北 6m/s
天気現象運行に影響にある天気現象が終了
TAF LIRF 140500Z 1406/1512 07010KT 8000 RA SCT020 BKN050
TEMPO 1406/1410 TSRA
BECMG 1414/1416 01012KT NSW